createdAt,value
2022-12-31T00:01:48.751Z,41.97
2022-12-31T00:05:03.733Z,44.03
2022-12-31T00:08:05.822Z,42.70
2022-12-31T00:11:21.758Z,37.70
2022-12-31T00:14:30.596Z,47.57
2022-12-31T00:17:39.865Z,39.97
2022-12-31T00:20:49.397Z,41.80
2022-12-31T00:24:04.859Z,35.55
2022-12-31T00:27:13.420Z,34.67
2022-12-31T00:30:22.750Z,32.57
2022-12-31T00:33:37.772Z,42.70
2022-12-31T00:36:40.204Z,37.45
2022-12-31T00:39:54.760Z,37.80
2022-12-31T00:42:56.684Z,34.83
2022-12-31T00:46:12.813Z,36.07
2022-12-31T00:49:21.891Z,40.37
2022-12-31T00:52:31.350Z,39.83
2022-12-31T00:55:45.793Z,39.38
2022-12-31T00:58:48.316Z,34.08
2022-12-31T01:02:02.814Z,33.77
2022-12-31T01:05:05.342Z,36.07
2022-12-31T01:08:19.757Z,38.50
2022-12-31T01:11:23.107Z,36.10
2022-12-31T01:14:37.773Z,34.03
2022-12-31T01:17:39.658Z,34.03
2022-12-31T01:20:55.788Z,37.40
2022-12-31T01:24:11.792Z,35.22
2022-12-31T01:27:13.781Z,37.40
2022-12-31T01:30:28.753Z,44.05
2022-12-31T01:33:30.635Z,38.93
2022-12-31T01:36:46.767Z,40.50
2022-12-31T01:39:55.802Z,48.92
2022-12-31T01:43:20.460Z,41.37
2022-12-31T01:46:35.897Z,46.47
2022-12-31T01:49:51.407Z,44.47
2022-12-31T01:53:04.748Z,39.47
2022-12-31T01:56:20.764Z,42.85
2022-12-31T01:59:27.034Z,39.42
2022-12-31T02:02:43.806Z,47.88
2022-12-31T02:06:01.792Z,44.90
2022-12-31T02:09:11.783Z,48.07
2022-12-31T02:12:19.766Z,40.72
2022-12-31T02:15:52.824Z,43.95
2022-12-31T02:19:29.495Z,42.80
2022-12-31T02:23:08.841Z,43.43
2022-12-31T02:26:37.534Z,38.23
2022-12-31T02:30:06.951Z,44.08
2022-12-31T02:33:29.833Z,37.30
2022-12-31T02:36:50.800Z,36.92
2022-12-31T02:39:59.828Z,39.73
2022-12-31T02:43:15.211Z,37.23
2022-12-31T02:46:38.019Z,40.22
2022-12-31T02:50:09.820Z,38.70
2022-12-31T02:53:47.785Z,34.63
2022-12-31T02:57:19.796Z,44.93
2022-12-31T03:00:22.387Z,40.13
2022-12-31T03:03:37.893Z,39.75
2022-12-31T03:06:46.912Z,37.08
2022-12-31T03:09:56.795Z,37.65
2022-12-31T03:13:11.829Z,45.03
2022-12-31T03:16:20.503Z,34.77
2022-12-31T03:19:28.834Z,37.58
2022-12-31T03:22:47.896Z,34.30
2022-12-31T03:25:49.983Z,40.88
2022-12-31T03:29:04.818Z,43.23
2022-12-31T03:32:19.925Z,39.40
2022-12-31T03:35:22.246Z,40.70
2022-12-31T03:38:36.802Z,44.20
2022-12-31T03:41:45.849Z,47.20
2022-12-31T03:45:07.839Z,42.10
2022-12-31T03:48:19.099Z,49.77
2022-12-31T03:51:33.802Z,48.63
2022-12-31T03:54:42.583Z,45.15
2022-12-31T03:57:51.931Z,49.13
2022-12-31T04:01:06.975Z,52.40
2022-12-31T04:04:09.039Z,43.77
2022-12-31T04:07:23.841Z,48.85
2022-12-31T04:10:32.460Z,44.17
2022-12-31T04:13:46.821Z,46.33
2022-12-31T04:16:54.842Z,43.87
2022-12-31T04:20:04.378Z,49.77
2022-12-31T04:23:19.825Z,38.88
2022-12-31T04:26:29.104Z,43.70
2022-12-31T04:29:43.825Z,40.05
2022-12-31T04:32:45.703Z,44.47
2022-12-31T04:36:07.955Z,43.83
2022-12-31T04:39:10.335Z,45.30
2022-12-31T04:42:24.877Z,41.35
2022-12-31T04:45:39.869Z,43.55
2022-12-31T04:48:54.928Z,49.90
2022-12-31T04:51:57.140Z,46.73
2022-12-31T04:55:12.894Z,45.10
2022-12-31T04:58:15.073Z,51.15
2022-12-31T05:01:31.242Z,49.10
2022-12-31T05:04:33.243Z,43.40
2022-12-31T05:07:47.962Z,50.23
2022-12-31T05:10:49.905Z,47.42
2022-12-31T05:14:04.906Z,51.13
2022-12-31T05:17:13.619Z,54.53
2022-12-31T05:20:22.970Z,50.20
2022-12-31T05:23:37.881Z,52.37
2022-12-31T05:26:45.877Z,50.88
2022-12-31T05:30:00.856Z,42.25
2022-12-31T05:33:09.799Z,48.25
2022-12-31T05:36:17.941Z,44.60
2022-12-31T05:39:32.953Z,52.63
2022-12-31T05:42:41.900Z,51.33
2022-12-31T05:45:50.608Z,56.42
2022-12-31T05:49:00.916Z,55.65
2022-12-31T05:52:16.884Z,58.57
2022-12-31T05:55:24.849Z,56.97
2022-12-31T05:58:33.653Z,54.40
2022-12-31T06:01:48.871Z,50.72
2022-12-31T06:04:57.500Z,53.22
2022-12-31T06:08:05.929Z,51.73
2022-12-31T06:11:20.947Z,51.67
2022-12-31T06:14:29.680Z,58.10
2022-12-31T06:17:44.985Z,49.20
2022-12-31T06:20:53.527Z,53.25
2022-12-31T06:24:02.004Z,47.27
2022-12-31T06:27:10.561Z,56.00
2022-12-31T06:30:25.120Z,48.78
2022-12-31T06:33:27.323Z,54.53
2022-12-31T06:36:41.906Z,51.75
2022-12-31T06:39:44.017Z,53.57
2022-12-31T06:43:00.293Z,59.90
2022-12-31T06:46:04.245Z,51.80
2022-12-31T06:49:19.952Z,51.42
2022-12-31T06:52:22.036Z,47.30
2022-12-31T06:55:37.917Z,55.80
2022-12-31T06:58:47.867Z,43.93
2022-12-31T07:02:14.014Z,58.42
2022-12-31T07:05:39.365Z,54.55
2022-12-31T07:09:07.945Z,47.35
2022-12-31T07:12:36.332Z,58.77
2022-12-31T07:16:07.061Z,44.10
2022-12-31T07:19:44.430Z,55.00
2022-12-31T07:22:52.892Z,51.92
2022-12-31T07:26:24.921Z,47.80
2022-12-31T07:29:42.664Z,50.67
2022-12-31T07:33:18.044Z,45.23
2022-12-31T07:36:59.978Z,37.65
2022-12-31T07:40:24.929Z,47.55
2022-12-31T07:43:53.117Z,46.22
2022-12-31T07:47:03.967Z,50.93
2022-12-31T07:50:22.952Z,53.17
2022-12-31T07:53:25.605Z,44.80
2022-12-31T07:56:39.977Z,50.15
2022-12-31T08:00:11.955Z,46.45
2022-12-31T08:03:50.589Z,53.43
2022-12-31T08:07:19.128Z,43.93
2022-12-31T08:10:54.999Z,49.88
2022-12-31T08:14:10.976Z,49.92
2022-12-31T08:17:15.714Z,50.45
2022-12-31T08:20:29.953Z,49.93
2022-12-31T08:23:54.350Z,50.93
2022-12-31T08:27:29.989Z,55.30
2022-12-31T08:30:53.380Z,48.72
2022-12-31T08:34:22.990Z,52.60
2022-12-31T08:38:04.127Z,52.63
2022-12-31T08:41:28.373Z,53.40
2022-12-31T08:45:08.980Z,48.42
2022-12-31T08:48:39.020Z,57.35
2022-12-31T08:51:48.033Z,54.22
2022-12-31T08:54:57.009Z,53.93
2022-12-31T08:58:32.340Z,55.23
2022-12-31T09:02:09.072Z,57.00
2022-12-31T09:05:41.988Z,62.53
2022-12-31T09:09:03.812Z,54.00
2022-12-31T09:12:39.005Z,56.80
2022-12-31T09:16:09.041Z,55.40
2022-12-31T09:19:11.669Z,61.25
2022-12-31T09:22:26.983Z,58.35
2022-12-31T09:25:36.017Z,53.08
2022-12-31T09:29:08.054Z,59.97
2022-12-31T09:32:25.851Z,50.17
2022-12-31T09:35:58.986Z,49.70
2022-12-31T09:39:13.576Z,55.00
2022-12-31T09:42:52.979Z,58.80
2022-12-31T09:46:32.032Z,52.70
2022-12-31T09:50:08.118Z,54.53
2022-12-31T09:53:35.876Z,50.47
2022-12-31T09:56:58.796Z,47.62
2022-12-31T10:00:20.184Z,64.53
2022-12-31T10:04:01.035Z,57.50
2022-12-31T10:07:51.982Z,43.57
2022-12-31T10:11:06.118Z,55.85
2022-12-31T10:14:49.022Z,50.05
2022-12-31T10:18:10.845Z,54.45
2022-12-31T10:21:55.217Z,58.27
2022-12-31T10:25:38.451Z,52.83
2022-12-31T10:29:02.166Z,48.53
2022-12-31T10:32:33.034Z,52.35
2022-12-31T10:35:57.016Z,56.85
2022-12-31T10:39:30.104Z,60.53
2022-12-31T10:42:52.074Z,48.93
2022-12-31T10:46:42.102Z,50.25
2022-12-31T10:50:28.067Z,55.45
2022-12-31T10:53:52.206Z,54.45
2022-12-31T10:57:27.117Z,53.40
2022-12-31T11:00:53.580Z,94.43
2022-12-31T11:04:45.061Z,62.08
2022-12-31T11:08:17.122Z,61.60
2022-12-31T11:11:55.869Z,67.57
2022-12-31T11:15:24.056Z,61.73
2022-12-31T11:19:00.361Z,63.47
2022-12-31T11:22:32.073Z,61.40
2022-12-31T11:26:17.242Z,63.45
2022-12-31T11:29:59.119Z,59.47
2022-12-31T11:33:21.181Z,57.27
2022-12-31T11:36:56.162Z,61.90
2022-12-31T11:40:26.147Z,54.33
2022-12-31T11:43:56.089Z,55.12
2022-12-31T11:47:23.092Z,54.63
2022-12-31T11:50:55.215Z,52.53
2022-12-31T11:54:41.061Z,48.20
2022-12-31T11:57:52.471Z,49.08
2022-12-31T12:01:24.082Z,49.15
2022-12-31T12:04:32.921Z,51.92
2022-12-31T12:07:48.084Z,52.70
2022-12-31T12:11:00.080Z,47.27
2022-12-31T12:14:27.147Z,52.47
2022-12-31T12:17:39.296Z,52.92
2022-12-31T12:20:48.017Z,53.53
2022-12-31T12:24:08.093Z,57.27
2022-12-31T12:27:27.401Z,60.43
2022-12-31T12:30:45.220Z,52.03
2022-12-31T12:33:48.633Z,54.53
2022-12-31T12:37:03.101Z,56.88
2022-12-31T12:40:27.021Z,53.57
2022-12-31T12:43:42.129Z,57.20
2022-12-31T12:47:05.226Z,52.30
2022-12-31T12:50:23.244Z,51.85
2022-12-31T12:54:14.144Z,52.03
2022-12-31T12:57:32.345Z,55.57
2022-12-31T13:01:03.246Z,48.10
2022-12-31T13:04:36.182Z,53.05
2022-12-31T13:08:05.104Z,65.43
2022-12-31T13:12:07.326Z,60.28
2022-12-31T13:15:27.085Z,50.63
2022-12-31T13:19:00.329Z,55.50
2022-12-31T13:22:25.806Z,54.45
2022-12-31T13:25:50.165Z,54.88
2022-12-31T13:29:02.326Z,47.70
2022-12-31T13:32:15.206Z,51.20
2022-12-31T13:35:40.825Z,46.53
2022-12-31T13:38:59.169Z,48.90
2022-12-31T13:42:18.251Z,46.72
2022-12-31T13:45:42.057Z,48.15
2022-12-31T13:49:00.228Z,45.90
2022-12-31T13:52:35.160Z,44.90
2022-12-31T13:55:44.476Z,44.22
2022-12-31T13:59:08.149Z,46.47
2022-12-31T14:02:35.329Z,44.20
2022-12-31T14:05:53.117Z,41.63
2022-12-31T14:09:09.178Z,43.60
2022-12-31T14:12:37.864Z,44.03
2022-12-31T14:16:09.110Z,43.17
2022-12-31T14:19:41.185Z,42.53
2022-12-31T14:23:11.164Z,39.50
2022-12-31T14:26:25.121Z,39.97
2022-12-31T14:30:04.445Z,39.10
2022-12-31T14:33:37.207Z,41.05
2022-12-31T14:37:08.163Z,39.90
2022-12-31T14:40:41.844Z,40.50
2022-12-31T14:44:12.199Z,37.83
2022-12-31T14:47:35.994Z,35.63
2022-12-31T14:50:53.147Z,36.08
2022-12-31T14:53:56.586Z,35.22
2022-12-31T14:57:30.199Z,42.87
2022-12-31T15:00:42.156Z,42.43
2022-12-31T15:03:51.124Z,37.70
2022-12-31T15:07:13.284Z,36.20
2022-12-31T15:10:36.200Z,36.40
2022-12-31T15:14:14.168Z,38.30
2022-12-31T15:17:58.684Z,38.73
2022-12-31T15:21:31.239Z,38.80
2022-12-31T15:24:45.942Z,32.20
2022-12-31T15:27:55.170Z,32.20
2022-12-31T15:31:20.935Z,34.37
2022-12-31T15:34:42.315Z,34.53
2022-12-31T15:38:09.692Z,37.10
2022-12-31T15:42:10.187Z,31.87
2022-12-31T15:45:21.260Z,35.75
2022-12-31T15:48:52.293Z,29.87
2022-12-31T15:52:08.217Z,34.23
2022-12-31T15:55:39.211Z,35.33
2022-12-31T15:58:54.354Z,37.58
2022-12-31T16:02:03.343Z,32.38
2022-12-31T16:05:28.284Z,33.30
2022-12-31T16:08:41.169Z,36.47
2022-12-31T16:11:57.213Z,35.75
2022-12-31T16:15:07.117Z,37.78
2022-12-31T16:18:23.458Z,33.17
2022-12-31T16:21:43.210Z,34.30
2022-12-31T16:28:27.239Z,31.50
2022-12-31T16:31:42.220Z,33.97
2022-12-31T16:34:50.853Z,32.58
2022-12-31T16:38:17.311Z,32.37
2022-12-31T16:41:32.205Z,32.00
2022-12-31T16:44:34.079Z,33.15
2022-12-31T16:47:56.180Z,34.90
2022-12-31T16:50:58.662Z,34.88
2022-12-31T16:54:26.329Z,30.57
2022-12-31T16:57:35.145Z,39.65
2022-12-31T17:00:44.264Z,35.13
2022-12-31T17:03:58.220Z,34.17
2022-12-31T17:07:26.329Z,34.60
2022-12-31T17:10:36.210Z,48.33
2022-12-31T17:13:45.198Z,35.72
2022-12-31T17:17:07.969Z,34.55
2022-12-31T17:20:29.213Z,43.22
2022-12-31T17:23:39.569Z,39.70
2022-12-31T17:26:54.265Z,41.60
2022-12-31T17:30:19.185Z,40.05
2022-12-31T17:33:37.283Z,41.58
2022-12-31T17:36:57.241Z,38.25
2022-12-31T17:40:50.342Z,37.95
2022-12-31T17:43:59.363Z,39.83
2022-12-31T17:47:18.258Z,36.90
2022-12-31T17:50:28.206Z,41.10
2022-12-31T17:53:36.277Z,44.17
2022-12-31T17:56:45.689Z,46.53
2022-12-31T17:59:54.271Z,46.23
2022-12-31T18:03:03.727Z,42.67
2022-12-31T18:06:19.480Z,44.03
2022-12-31T18:09:34.377Z,42.75
2022-12-31T18:12:37.181Z,50.78
2022-12-31T18:15:52.462Z,46.07
2022-12-31T18:18:57.673Z,51.97
2022-12-31T18:22:12.349Z,53.60
2022-12-31T18:25:23.648Z,67.15
2022-12-31T18:28:32.500Z,55.95
2022-12-31T18:31:43.496Z,50.60
2022-12-31T18:34:52.289Z,53.97
2022-12-31T18:38:01.112Z,47.62
2022-12-31T18:41:10.299Z,51.00
2022-12-31T18:44:25.277Z,52.45
2022-12-31T18:47:37.696Z,55.10
2022-12-31T18:50:47.396Z,58.10
2022-12-31T18:53:56.645Z,59.72
2022-12-31T18:57:05.393Z,59.35
2022-12-31T19:00:14.784Z,58.40
2022-12-31T19:03:29.373Z,69.80
2022-12-31T19:06:44.434Z,66.00
2022-12-31T19:09:48.296Z,62.47
2022-12-31T19:13:05.318Z,60.33
2022-12-31T19:16:08.770Z,59.88
2022-12-31T19:19:24.423Z,70.03
2022-12-31T19:22:33.417Z,73.70
2022-12-31T19:25:42.321Z,71.62
2022-12-31T19:28:51.226Z,70.12
2022-12-31T19:32:00.336Z,77.53
2022-12-31T19:35:12.010Z,75.03
2022-12-31T19:38:33.455Z,83.05
2022-12-31T19:41:42.290Z,78.43
2022-12-31T19:44:58.884Z,77.47
2022-12-31T19:48:07.419Z,77.35
2022-12-31T19:51:18.569Z,72.47
2022-12-31T19:54:27.338Z,76.87
2022-12-31T19:57:42.318Z,72.75
2022-12-31T20:00:49.646Z,80.65
2022-12-31T20:04:08.377Z,74.20
2022-12-31T20:07:10.314Z,87.27
2022-12-31T20:10:27.333Z,81.80
2022-12-31T20:13:36.495Z,98.53
2022-12-31T20:16:45.065Z,97.03
2022-12-31T20:19:54.347Z,99.93
2022-12-31T20:23:03.235Z,113.33
2022-12-31T20:26:11.338Z,97.20
2022-12-31T20:29:26.463Z,98.28
2022-12-31T20:32:28.985Z,95.47
2022-12-31T20:35:43.319Z,89.95
2022-12-31T20:38:52.236Z,97.70
2022-12-31T20:42:00.366Z,93.25
2022-12-31T20:45:22.380Z,91.65
2022-12-31T20:48:31.368Z,116.45
2022-12-31T20:51:51.939Z,90.40
2022-12-31T20:55:01.149Z,98.50
2022-12-31T20:58:16.426Z,86.95
2022-12-31T21:01:21.233Z,93.50
2022-12-31T21:04:36.507Z,109.93
2022-12-31T21:07:38.420Z,102.55
2022-12-31T21:10:56.375Z,100.43
2022-12-31T21:14:05.374Z,84.03
2022-12-31T21:17:20.388Z,100.07
2022-12-31T21:20:23.087Z,93.03
2022-12-31T21:23:37.357Z,103.62
2022-12-31T21:26:52.415Z,94.03
2022-12-31T21:30:22.599Z,99.53
2022-12-31T21:33:31.357Z,105.40
2022-12-31T21:36:39.985Z,97.68
2022-12-31T21:39:55.383Z,109.25
2022-12-31T21:43:04.217Z,106.17
2022-12-31T21:46:19.441Z,100.87
2022-12-31T21:49:21.534Z,88.53
2022-12-31T21:52:36.395Z,93.68
2022-12-31T21:55:52.412Z,95.10
2022-12-31T21:59:07.610Z,86.13
2022-12-31T22:02:23.474Z,76.37
2022-12-31T22:05:32.418Z,79.50
2022-12-31T22:08:50.514Z,84.30
2022-12-31T22:11:59.579Z,79.85
2022-12-31T22:15:15.640Z,81.73
2022-12-31T22:18:24.506Z,76.30
2022-12-31T22:21:39.413Z,80.10
2022-12-31T22:24:41.206Z,76.87
2022-12-31T22:28:36.147Z,77.00
2022-12-31T22:31:29.459Z,76.80
2022-12-31T22:34:44.460Z,83.47
2022-12-31T22:37:58.499Z,69.00
2022-12-31T22:41:21.430Z,77.57
2022-12-31T22:44:23.361Z,84.28
2022-12-31T22:47:45.455Z,76.20
2022-12-31T22:51:02.398Z,80.62
2022-12-31T22:54:04.470Z,75.93
2022-12-31T22:57:20.318Z,76.60
2022-12-31T23:00:46.454Z,82.47
2022-12-31T23:04:02.600Z,183.27
2022-12-31T23:07:11.492Z,88.72
2022-12-31T23:10:20.132Z,79.30
2022-12-31T23:13:28.486Z,81.65
2022-12-31T23:16:43.482Z,85.00
2022-12-31T23:19:52.202Z,81.83
2022-12-31T23:23:00.414Z,83.68
2022-12-31T23:26:15.421Z,115.57
2022-12-31T23:29:19.658Z,163.12
2022-12-31T23:32:35.397Z,168.68
2022-12-31T23:35:37.466Z,185.77
2022-12-31T23:38:52.565Z,171.10
2022-12-31T23:41:54.509Z,156.95
2022-12-31T23:45:10.455Z,152.95
2022-12-31T23:48:19.131Z,155.43
2022-12-31T23:51:33.424Z,179.27
2022-12-31T23:54:35.400Z,159.05
2022-12-31T23:57:50.470Z,159.95
